createdAt,value
2017-05-12T00:00:07.959Z,8
2017-05-12T00:01:20.882Z,12
2017-05-12T00:02:33.797Z,4
2017-05-12T00:03:46.232Z,4
2017-05-12T00:04:59.152Z,12
2017-05-12T00:06:11.582Z,12
2017-05-12T00:07:23.034Z,12
2017-05-12T00:08:35.461Z,12
2017-05-12T00:09:48.584Z,12
2017-05-12T00:11:01.502Z,12
2017-05-12T00:12:14.416Z,8
2017-05-12T00:13:27.342Z,12
2017-05-12T00:14:40.262Z,12
2017-05-12T00:15:52.891Z,4
2017-05-12T00:17:05.833Z,4
2017-05-12T00:18:18.263Z,4
2017-05-12T00:19:31.182Z,16
2017-05-12T00:20:44.406Z,16
2017-05-12T00:21:57.329Z,12
2017-05-12T00:23:10.248Z,12
2017-05-12T00:24:22.683Z,12
2017-05-12T00:25:35.600Z,12
2017-05-12T00:26:48.869Z,12
2017-05-12T00:28:01.864Z,12
2017-05-12T00:29:14.369Z,12
2017-05-12T00:30:27.374Z,12
2017-05-12T00:31:40.588Z,12
2017-05-12T00:32:53.096Z,12
2017-05-12T00:34:06.106Z,16
2017-05-12T00:35:19.103Z,12
2017-05-12T00:36:31.605Z,12
2017-05-12T00:37:44.811Z,12
2017-05-12T00:38:57.314Z,12
2017-05-12T00:40:10.320Z,12
2017-05-12T00:41:23.317Z,16
2017-05-12T00:42:36.516Z,12
2017-05-12T00:43:49.512Z,12
2017-05-12T00:45:02.510Z,12
2017-05-12T00:46:15.534Z,12
2017-05-12T00:47:28.029Z,12
2017-05-12T00:48:41.021Z,12
2017-05-12T00:49:54.009Z,12
2017-05-12T00:51:06.991Z,12
2017-05-12T00:52:19.980Z,12
2017-05-12T00:53:33.158Z,12
2017-05-12T00:54:46.143Z,12
2017-05-12T00:55:59.129Z,12
2017-05-12T00:57:11.119Z,12
2017-05-12T00:58:23.113Z,12
2017-05-12T00:59:35.602Z,12
2017-05-12T01:00:48.584Z,12
2017-05-12T01:02:01.512Z,12
2017-05-12T01:03:14.410Z,12
2017-05-12T01:04:27.319Z,4
2017-05-12T01:05:40.270Z,4
2017-05-12T01:06:53.170Z,4
2017-05-12T01:08:05.579Z,4
2017-05-12T01:09:17.994Z,16
2017-05-12T01:10:30.933Z,16
2017-05-12T01:11:43.341Z,12
2017-05-12T01:12:56.244Z,12
2017-05-12T01:14:09.145Z,12
2017-05-12T01:15:22.351Z,4
2017-05-12T01:16:34.764Z,4
2017-05-12T01:17:47.176Z,12
2017-05-12T01:19:00.077Z,12
2017-05-12T01:20:11.998Z,12
2017-05-12T01:21:24.903Z,12
2017-05-12T01:22:37.797Z,12
2017-05-12T01:23:50.694Z,12
2017-05-12T01:25:03.592Z,12
2017-05-12T01:26:16.497Z,12
2017-05-12T01:27:29.399Z,8
2017-05-12T01:28:41.806Z,12
2017-05-12T01:29:54.218Z,12
2017-05-12T01:31:07.122Z,12
2017-05-12T01:32:19.749Z,12
2017-05-12T01:33:32.649Z,4
2017-05-12T01:34:45.557Z,12
2017-05-12T01:35:58.455Z,16
2017-05-12T01:37:11.168Z,12
2017-05-12T01:38:24.070Z,12
2017-05-12T01:39:36.973Z,12
2017-05-12T01:40:49.383Z,12
2017-05-12T01:43:28.453Z,12
2017-05-12T01:44:41.367Z,8
2017-05-12T01:45:54.272Z,12
2017-05-12T01:47:07.174Z,12
2017-05-12T01:48:20.278Z,12
2017-05-12T01:49:32.692Z,12
2017-05-12T01:50:45.597Z,12
2017-05-12T01:51:58.012Z,12
2017-05-12T01:53:10.918Z,12
2017-05-12T01:54:23.827Z,12
2017-05-12T01:55:36.730Z,12
2017-05-12T01:56:49.630Z,12
2017-05-12T01:58:02.532Z,12
2017-05-12T01:59:15.739Z,12
2017-05-12T02:00:28.636Z,12
2017-05-12T02:01:41.537Z,12
2017-05-12T02:02:54.442Z,12
2017-05-12T02:04:06.853Z,12
2017-05-12T02:05:19.959Z,12
2017-05-12T02:06:32.854Z,12
2017-05-12T02:07:45.758Z,12
2017-05-12T02:08:58.674Z,4
2017-05-12T02:10:11.086Z,4
2017-05-12T02:11:23.990Z,4
2017-05-12T02:12:36.891Z,16
2017-05-12T02:13:49.800Z,16
2017-05-12T02:15:02.703Z,12
2017-05-12T02:16:15.603Z,12
2017-05-12T02:17:28.015Z,12
2017-05-12T02:18:40.922Z,8
2017-05-12T02:19:53.340Z,12
2017-05-12T02:21:05.950Z,12
2017-05-12T02:22:18.854Z,12
2017-05-12T02:23:31.759Z,12
2017-05-12T02:24:44.662Z,12
2017-05-12T02:25:57.565Z,12
2017-05-12T02:27:10.468Z,4
2017-05-12T02:28:23.366Z,12
2017-05-12T02:29:36.269Z,12
2017-05-12T02:30:49.170Z,16
2017-05-12T02:32:02.078Z,12
2017-05-12T02:33:13.997Z,12
2017-05-12T02:34:26.895Z,12
2017-05-12T02:35:39.795Z,12
2017-05-12T02:36:52.698Z,12
2017-05-12T02:38:05.901Z,12
2017-05-12T02:39:18.312Z,12
2017-05-12T02:40:31.213Z,12
2017-05-12T02:41:44.110Z,12
2017-05-12T02:42:57.215Z,4
2017-05-12T02:44:10.124Z,4
2017-05-12T02:45:23.117Z,16
2017-05-12T02:46:35.159Z,16
2017-05-12T02:47:48.206Z,12
2017-05-12T02:49:01.449Z,4
2017-05-12T02:50:13.993Z,12
2017-05-12T02:51:27.040Z,12
2017-05-12T02:52:40.096Z,12
2017-05-12T02:53:53.140Z,12
2017-05-12T02:55:05.682Z,12
2017-05-12T02:56:18.219Z,12
2017-05-12T02:57:31.292Z,12
2017-05-12T02:58:44.332Z,12
2017-05-12T02:59:57.377Z,12
2017-05-12T03:01:10.417Z,12
2017-05-12T03:02:23.418Z,12
2017-05-12T03:03:34.868Z,12
2017-05-12T03:04:47.793Z,12
2017-05-12T03:06:00.757Z,4
2017-05-12T03:07:13.190Z,4
2017-05-12T03:08:26.110Z,4
2017-05-12T03:09:38.540Z,12
2017-05-12T03:10:51.458Z,12
2017-05-12T03:12:04.400Z,12
2017-05-12T03:13:16.830Z,12
2017-05-12T03:14:29.264Z,8
2017-05-12T03:15:42.382Z,12
2017-05-12T03:16:54.812Z,12
2017-05-12T03:18:07.743Z,12
2017-05-12T03:19:20.572Z,12
2017-05-12T03:20:33.354Z,12
2017-05-12T03:21:46.438Z,12
2017-05-12T03:22:59.217Z,12
2017-05-12T03:24:12.003Z,12
2017-05-12T03:25:24.783Z,8
2017-05-12T03:26:37.560Z,12
2017-05-12T03:27:49.379Z,12
2017-05-12T03:29:01.677Z,12
2017-05-12T03:30:14.453Z,12
2017-05-12T03:31:27.234Z,12
2017-05-12T03:32:40.324Z,12
2017-05-12T03:33:53.115Z,12
2017-05-12T03:35:05.899Z,12
2017-05-12T03:36:18.200Z,12
2017-05-12T03:37:31.189Z,12
2017-05-12T03:38:43.998Z,12
2017-05-12T03:39:56.784Z,8
2017-05-12T03:41:09.568Z,12
2017-05-12T03:42:22.345Z,12
2017-05-12T03:43:35.426Z,12
2017-05-12T03:44:48.212Z,12
2017-05-12T03:46:00.991Z,12
2017-05-12T03:47:13.290Z,12
2017-05-12T03:48:26.364Z,12
2017-05-12T03:49:38.771Z,12
2017-05-12T03:50:51.674Z,12
2017-05-12T03:52:04.078Z,4
2017-05-12T03:53:16.484Z,12
2017-05-12T03:54:28.895Z,12
2017-05-12T03:55:41.792Z,12
2017-05-12T03:56:54.200Z,12
2017-05-12T03:58:06.613Z,12
2017-05-12T03:59:19.022Z,12
2017-05-12T04:00:31.930Z,12
2017-05-12T04:01:44.830Z,12
2017-05-12T04:02:57.737Z,12
2017-05-12T04:04:10.146Z,12
2017-05-12T04:05:23.057Z,12
2017-05-12T04:06:35.952Z,12
2017-05-12T04:07:48.859Z,12
2017-05-12T04:09:01.761Z,4
2017-05-12T04:10:14.861Z,12
2017-05-12T04:11:27.766Z,12
2017-05-12T04:12:40.665Z,12
2017-05-12T04:13:53.562Z,12
2017-05-12T04:15:06.471Z,12
2017-05-12T04:16:19.365Z,12
2017-05-12T04:17:31.776Z,12
2017-05-12T04:18:43.698Z,8
2017-05-12T04:19:56.595Z,12
2017-05-12T04:21:09.801Z,12
2017-05-12T04:22:22.697Z,12
2017-05-12T04:23:35.596Z,12
2017-05-12T04:24:48.493Z,12
2017-05-12T04:26:01.690Z,4
2017-05-12T04:27:14.594Z,4
2017-05-12T04:28:27.491Z,12
2017-05-12T04:29:39.913Z,12
2017-05-12T04:30:52.810Z,12
2017-05-12T04:32:06.010Z,12
2017-05-12T04:33:18.923Z,12
2017-05-12T04:34:31.357Z,4
2017-05-12T04:35:44.277Z,12
2017-05-12T04:36:57.202Z,12
2017-05-12T04:38:09.626Z,12
2017-05-12T04:39:22.546Z,12
2017-05-12T04:40:34.971Z,12
2017-05-12T04:41:47.884Z,12
2017-05-12T04:43:01.001Z,12
2017-05-12T04:44:12.938Z,12
2017-05-12T04:45:25.365Z,12
2017-05-12T04:46:37.789Z,12
2017-05-12T04:47:50.710Z,12
2017-05-12T04:49:03.833Z,12
2017-05-12T04:50:16.749Z,12
2017-05-12T04:51:29.665Z,12
2017-05-12T04:52:42.583Z,12
2017-05-12T04:53:55.801Z,12
2017-05-12T04:55:08.716Z,12
2017-05-12T04:56:21.138Z,12
2017-05-12T04:57:34.054Z,12
2017-05-12T04:58:46.973Z,12
2017-05-12T05:00:00.094Z,12
2017-05-12T05:01:12.516Z,12
2017-05-12T05:02:25.435Z,4
2017-05-12T05:03:38.360Z,12
2017-05-12T05:04:50.790Z,12
2017-05-12T05:06:03.706Z,12
2017-05-12T05:07:16.129Z,12
2017-05-12T05:08:29.044Z,12
2017-05-12T05:09:40.980Z,12
2017-05-12T05:10:54.096Z,12
2017-05-12T05:12:07.014Z,12
2017-05-12T05:13:18.985Z,12
2017-05-12T05:14:31.905Z,12
2017-05-12T05:15:44.830Z,12
2017-05-12T05:16:56.765Z,12
2017-05-12T05:18:09.679Z,12
2017-05-12T05:19:22.105Z,12
2017-05-12T05:20:34.530Z,12
2017-05-12T05:21:47.447Z,12
2017-05-12T05:23:00.362Z,12
2017-05-12T05:24:13.280Z,12
2017-05-12T05:25:26.193Z,12
2017-05-12T05:26:39.111Z,12
2017-05-12T05:27:51.577Z,12
2017-05-12T05:29:04.496Z,12
2017-05-12T05:30:16.920Z,12
2017-05-12T05:31:29.342Z,12
2017-05-12T05:32:42.560Z,12
2017-05-12T05:33:55.475Z,12
2017-05-12T05:35:08.400Z,12
2017-05-12T05:36:21.326Z,12
2017-05-12T05:37:47.809Z,12
2017-05-12T05:39:00.728Z,12
2017-05-12T05:40:13.167Z,12
2017-05-12T05:41:25.592Z,12
2017-05-12T05:42:38.708Z,12
2017-05-12T05:43:51.141Z,12
2017-05-12T05:45:04.070Z,8
2017-05-12T05:46:16.992Z,12
2017-05-12T05:47:29.414Z,12
2017-05-12T05:48:42.528Z,12
2017-05-12T05:49:55.440Z,4
2017-05-12T05:51:08.358Z,12
2017-05-12T05:52:20.785Z,12
2017-05-12T05:53:33.910Z,12
2017-05-12T05:54:46.826Z,12
2017-05-12T05:55:59.788Z,12
2017-05-12T05:57:12.213Z,12
2017-05-12T05:58:24.636Z,12
2017-05-12T05:59:37.769Z,12
2017-05-12T06:00:50.682Z,12
2017-05-12T06:02:03.599Z,12
2017-05-12T06:03:16.023Z,12
2017-05-12T06:04:28.448Z,12
2017-05-12T06:05:41.364Z,12
2017-05-12T06:06:54.279Z,12
2017-05-12T06:08:07.192Z,12
2017-05-12T06:09:19.616Z,12
2017-05-12T06:10:32.738Z,12
2017-05-12T06:11:45.655Z,8
2017-05-12T06:12:58.665Z,12
2017-05-12T06:14:11.222Z,12
2017-05-12T06:15:24.491Z,4
2017-05-12T06:16:37.047Z,16
2017-05-12T06:17:50.104Z,12
2017-05-12T06:19:03.163Z,12
2017-05-12T06:20:16.265Z,12
2017-05-12T06:21:29.323Z,12
2017-05-12T06:22:41.885Z,12
2017-05-12T06:23:54.949Z,12
2017-05-12T06:25:08.004Z,12
2017-05-12T06:26:20.860Z,12
2017-05-12T06:27:33.915Z,12
2017-05-12T06:28:46.983Z,4
2017-05-12T06:30:00.036Z,16
2017-05-12T06:31:13.295Z,12
2017-05-12T06:32:25.856Z,12
2017-05-12T06:33:38.917Z,12
2017-05-12T06:34:51.975Z,12
2017-05-12T06:36:05.033Z,12
2017-05-12T06:37:17.387Z,12
2017-05-12T06:38:29.442Z,12
2017-05-12T06:39:42.507Z,12
2017-05-12T06:40:55.564Z,8
2017-05-12T06:42:08.118Z,12
2017-05-12T06:43:21.178Z,12
2017-05-12T06:44:33.739Z,12
2017-05-12T06:45:46.794Z,12
2017-05-12T06:46:59.354Z,12
2017-05-12T06:48:12.321Z,12
2017-05-12T06:49:24.755Z,4
2017-05-12T06:50:37.672Z,12
2017-05-12T06:51:50.590Z,12
2017-05-12T06:53:03.511Z,12
2017-05-12T06:54:15.649Z,12
2017-05-12T06:55:28.076Z,12
2017-05-12T06:56:40.999Z,12
2017-05-12T06:57:53.912Z,12
2017-05-12T06:59:06.825Z,4
2017-05-12T07:00:19.741Z,12
2017-05-12T07:01:32.166Z,12
2017-05-12T07:02:45.080Z,12
2017-05-12T07:03:57.997Z,8
2017-05-12T07:05:10.421Z,12
2017-05-12T07:06:22.847Z,12
2017-05-12T07:07:35.764Z,12
2017-05-12T07:08:48.206Z,12
2017-05-12T07:10:01.326Z,4
2017-05-12T07:11:13.749Z,12
2017-05-12T07:12:26.171Z,12
2017-05-12T07:13:39.087Z,12
2017-05-12T07:14:52.014Z,8
2017-05-12T07:16:05.127Z,12
2017-05-12T07:17:18.042Z,4
2017-05-12T07:18:30.956Z,12
2017-05-12T07:19:43.381Z,12
2017-05-12T07:20:56.303Z,12
2017-05-12T07:22:09.309Z,12
2017-05-12T07:23:21.869Z,12
2017-05-12T07:24:34.928Z,12
2017-05-12T07:25:47.985Z,12
2017-05-12T07:27:00.840Z,12
2017-05-12T07:28:13.900Z,12
2017-05-12T07:29:26.964Z,4
2017-05-12T07:30:39.520Z,12
2017-05-12T07:31:52.296Z,12
2017-05-12T07:33:05.348Z,12
2017-05-12T07:34:17.888Z,12
2017-05-12T07:35:30.927Z,12
2017-05-12T07:36:44.268Z,12
2017-05-12T07:37:57.311Z,12
2017-05-12T07:39:10.350Z,12
2017-05-12T07:40:22.890Z,12
2017-05-12T07:41:35.432Z,12
2017-05-12T07:42:48.480Z,12
2017-05-12T07:44:01.519Z,12
2017-05-12T07:45:14.565Z,12
2017-05-12T07:46:27.105Z,12
2017-05-12T07:47:40.151Z,4
2017-05-12T07:48:53.495Z,12
2017-05-12T07:50:06.534Z,12
2017-05-12T07:51:18.575Z,12
2017-05-12T07:52:31.616Z,12
2017-05-12T07:53:44.963Z,12
2017-05-12T07:54:58.005Z,4
2017-05-12T07:56:11.045Z,12
2017-05-12T07:57:23.545Z,12
2017-05-12T07:58:36.033Z,12
2017-05-12T07:59:48.519Z,4
2017-05-12T08:01:01.496Z,12
2017-05-12T08:02:14.535Z,12
2017-05-12T08:03:27.021Z,12
2017-05-12T08:04:40.006Z,12
2017-05-12T08:05:52.988Z,12
2017-05-12T08:07:05.972Z,12
2017-05-12T08:08:18.461Z,4
2017-05-12T08:09:31.438Z,4
2017-05-12T08:10:44.423Z,12
2017-05-12T08:11:57.406Z,12
2017-05-12T08:13:10.391Z,12
2017-05-12T08:14:22.927Z,12
2017-05-12T08:15:36.103Z,12
2017-05-12T08:16:48.590Z,12
2017-05-12T08:18:01.489Z,12
2017-05-12T08:19:13.877Z,12
2017-05-12T08:20:26.750Z,12
2017-05-12T08:21:39.131Z,12
2017-05-12T08:22:51.514Z,8
2017-05-12T08:24:04.405Z,12
2017-05-12T08:25:16.790Z,12
2017-05-12T08:26:29.469Z,4
2017-05-12T08:27:42.336Z,12
2017-05-12T08:28:55.207Z,16
2017-05-12T08:30:07.597Z,12
2017-05-12T08:31:20.470Z,12
2017-05-12T08:32:33.148Z,12
2017-05-12T08:33:45.961Z,12
2017-05-12T08:34:58.750Z,12
2017-05-12T08:36:11.542Z,12
2017-05-12T08:37:24.526Z,12
2017-05-12T08:38:37.342Z,12
2017-05-12T08:39:49.651Z,12
2017-05-12T08:41:02.449Z,12
2017-05-12T08:42:15.229Z,12
2017-05-12T08:43:28.310Z,12
2017-05-12T08:44:41.097Z,12
2017-05-12T08:45:53.887Z,12
2017-05-12T08:47:06.185Z,12
2017-05-12T08:48:18.695Z,12
2017-05-12T08:49:31.478Z,12
2017-05-12T08:50:43.783Z,12
2017-05-12T08:51:56.575Z,12
2017-05-12T08:53:08.395Z,12
2017-05-12T08:54:20.896Z,12
2017-05-12T08:55:33.203Z,8
2017-05-12T08:56:45.500Z,12
2017-05-12T08:57:58.290Z,12
2017-05-12T08:59:10.892Z,12
2017-05-12T09:00:23.677Z,12
2017-05-12T09:01:36.467Z,12
2017-05-12T09:02:48.767Z,12
2017-05-12T09:04:01.583Z,12
2017-05-12T09:05:28.434Z,12
2017-05-12T09:06:41.224Z,12
2017-05-12T09:07:53.525Z,12
2017-05-12T09:09:06.302Z,12
2017-05-12T09:10:19.078Z,12
2017-05-12T09:11:31.382Z,12
2017-05-12T09:12:42.718Z,12
2017-05-12T09:13:55.503Z,12
2017-05-12T09:15:08.280Z,12
2017-05-12T09:16:20.573Z,16
2017-05-12T09:17:32.869Z,12
2017-05-12T09:18:45.647Z,12
2017-05-12T09:19:58.422Z,4
2017-05-12T09:21:11.026Z,16
2017-05-12T09:22:23.804Z,16
2017-05-12T09:23:36.587Z,16
2017-05-12T09:24:48.880Z,16
2017-05-12T09:26:01.658Z,20
2017-05-12T09:27:13.962Z,20
2017-05-12T09:28:26.743Z,20
2017-05-12T09:29:39.042Z,8
2017-05-12T09:30:51.823Z,8
2017-05-12T09:32:04.908Z,12
2017-05-12T09:33:17.205Z,12
2017-05-12T09:34:29.501Z,12
2017-05-12T09:35:42.281Z,20
2017-05-12T09:36:55.261Z,20
2017-05-12T09:38:08.045Z,20
2017-05-12T09:39:20.342Z,24
2017-05-12T09:40:33.121Z,24
2017-05-12T09:41:45.898Z,28
2017-05-12T09:42:58.726Z,32
2017-05-12T09:44:11.102Z,36
2017-05-12T09:45:23.961Z,40
2017-05-12T09:46:36.818Z,40
2017-05-12T09:47:49.779Z,44
2017-05-12T09:49:02.279Z,48
2017-05-12T09:50:14.782Z,52
2017-05-12T09:51:27.283Z,56
2017-05-12T09:52:39.788Z,56
2017-05-12T09:53:51.792Z,60
2017-05-12T09:55:04.295Z,60
2017-05-12T09:56:17.291Z,68
2017-05-12T09:57:30.287Z,68
2017-05-12T09:58:42.501Z,72
2017-05-12T09:59:55.499Z,72
2017-05-12T10:01:07.504Z,76
2017-05-12T10:02:20.003Z,76
2017-05-12T10:03:32.999Z,76
2017-05-12T10:04:46.295Z,84
2017-05-12T10:05:58.794Z,96
2017-05-12T10:07:11.794Z,108
2017-05-12T10:08:24.797Z,124
2017-05-12T10:09:37.793Z,116
2017-05-12T10:10:50.291Z,108
2017-05-12T10:12:03.289Z,112
2017-05-12T10:13:16.281Z,120
2017-05-12T10:14:28.780Z,108
2017-05-12T10:15:41.778Z,112
2017-05-12T10:16:54.277Z,112
2017-05-12T10:18:07.271Z,124
2017-05-12T10:19:20.274Z,124
2017-05-12T10:20:33.268Z,132
2017-05-12T10:21:46.267Z,156
2017-05-12T10:22:59.268Z,156
2017-05-12T10:24:12.263Z,156
2017-05-12T10:25:25.066Z,168
2017-05-12T10:26:37.110Z,164
2017-05-12T10:27:50.105Z,172
2017-05-12T10:29:02.613Z,200
2017-05-12T10:30:15.637Z,200
2017-05-12T10:31:28.631Z,228
2017-05-12T10:32:41.634Z,232
2017-05-12T10:33:54.123Z,220
2017-05-12T10:35:07.104Z,244
2017-05-12T10:36:20.088Z,208
2017-05-12T10:37:32.773Z,248
2017-05-12T10:38:45.261Z,192
2017-05-12T10:39:58.250Z,224
2017-05-12T10:41:11.233Z,244
2017-05-12T10:42:24.215Z,252
2017-05-12T10:43:36.699Z,280
2017-05-12T10:44:49.182Z,276
2017-05-12T10:46:02.163Z,268
2017-05-12T10:47:15.146Z,240
2017-05-12T10:48:28.426Z,232
2017-05-12T10:49:40.915Z,236
2017-05-12T10:50:52.908Z,228
2017-05-12T10:52:05.900Z,276
2017-05-12T10:53:18.383Z,296
2017-05-12T10:54:31.369Z,288
2017-05-12T10:55:44.349Z,240
2017-05-12T10:56:56.838Z,284
2017-05-12T10:58:09.346Z,296
2017-05-12T10:59:22.040Z,324
2017-05-12T11:00:34.524Z,300
2017-05-12T11:01:47.504Z,304
2017-05-12T11:02:59.992Z,356
2017-05-12T11:04:12.479Z,280
2017-05-12T11:05:25.460Z,264
2017-05-12T11:06:37.947Z,264
2017-05-12T11:07:50.433Z,260
2017-05-12T11:09:03.411Z,232
2017-05-12T11:10:16.092Z,224
2017-05-12T11:11:28.579Z,244
2017-05-12T11:12:41.573Z,256
2017-05-12T11:13:54.556Z,232
2017-05-12T11:15:07.740Z,244
2017-05-12T11:16:19.731Z,252
2017-05-12T11:17:32.230Z,260
2017-05-12T11:18:45.239Z,280
2017-05-12T11:19:57.785Z,284
2017-05-12T11:21:10.305Z,308
2017-05-12T11:22:23.307Z,292
2017-05-12T11:23:35.809Z,352
2017-05-12T11:24:48.802Z,364
2017-05-12T11:26:02.000Z,256
2017-05-12T11:27:14.941Z,324
2017-05-12T11:28:27.370Z,476
2017-05-12T11:29:40.290Z,556
2017-05-12T11:30:52.722Z,1044
2017-05-12T11:32:05.836Z,1316
2017-05-12T11:33:18.755Z,640
2017-05-12T11:34:31.672Z,592
2017-05-12T11:35:44.589Z,1604
2017-05-12T11:37:11.060Z,468
2017-05-12T11:38:23.974Z,1540
2017-05-12T11:39:36.895Z,652
2017-05-12T11:40:49.316Z,340
2017-05-12T11:42:02.537Z,1212
2017-05-12T11:43:15.461Z,1632
2017-05-12T11:44:27.938Z,1664
2017-05-12T11:45:40.860Z,1620
2017-05-12T11:46:53.783Z,1668
2017-05-12T11:48:07.503Z,1636
2017-05-12T11:49:20.420Z,1660
2017-05-12T11:50:33.336Z,1668
2017-05-12T11:51:46.256Z,1684
2017-05-12T11:52:59.179Z,1708
2017-05-12T11:54:11.604Z,1628
2017-05-12T11:55:24.038Z,1684
2017-05-12T11:56:36.958Z,1696
2017-05-12T11:57:49.386Z,1724
2017-05-12T11:59:02.305Z,1668
2017-05-12T12:00:15.220Z,1716
2017-05-12T12:01:27.712Z,1752
2017-05-12T12:02:39.212Z,1792
2017-05-12T12:03:52.410Z,1788
2017-05-12T12:05:05.391Z,1780
2017-05-12T12:06:18.418Z,1800
2017-05-12T12:07:31.401Z,1812
2017-05-12T12:08:44.586Z,1820
2017-05-12T12:09:56.578Z,1840
2017-05-12T12:11:09.570Z,1768
2017-05-12T12:12:22.555Z,1900
2017-05-12T12:13:35.540Z,1904
2017-05-12T12:14:48.520Z,1928
2017-05-12T12:16:01.501Z,1976
2017-05-12T12:17:13.989Z,1976
2017-05-12T12:18:26.973Z,2040
2017-05-12T12:19:39.814Z,2044
2017-05-12T12:20:52.302Z,1992
2017-05-12T12:22:05.284Z,2000
2017-05-12T12:23:17.773Z,2020
2017-05-12T12:24:30.755Z,2000
2017-05-12T12:25:43.735Z,2012
2017-05-12T12:26:56.724Z,2048
2017-05-12T12:28:08.720Z,2028
2017-05-12T12:29:21.700Z,760
2017-05-12T12:30:34.683Z,1220
2017-05-12T12:31:47.473Z,1980
2017-05-12T12:33:00.458Z,2056
2017-05-12T12:34:13.447Z,2040
2017-05-12T12:35:25.935Z,520
2017-05-12T12:36:38.424Z,2072
2017-05-12T12:37:50.912Z,1996
2017-05-12T12:39:03.910Z,388
2017-05-12T12:40:17.093Z,1916
2017-05-12T12:41:30.082Z,1124
2017-05-12T12:42:43.066Z,1932
2017-05-12T12:43:56.049Z,1900
2017-05-12T12:45:09.039Z,1888
2017-05-12T12:46:22.021Z,1876
2017-05-12T12:47:34.509Z,1880
2017-05-12T12:48:47.490Z,1912
2017-05-12T12:50:00.477Z,1864
2017-05-12T12:51:13.078Z,1832
2017-05-12T12:52:25.572Z,1744
2017-05-12T12:53:38.063Z,1788
2017-05-12T12:54:51.053Z,1788
2017-05-12T12:56:04.038Z,1820
2017-05-12T12:57:16.526Z,1836
2017-05-12T12:58:29.513Z,1868
2017-05-12T12:59:42.493Z,1864
2017-05-12T13:00:54.988Z,1812
2017-05-12T13:02:07.974Z,1792
2017-05-12T13:03:20.465Z,1804
2017-05-12T13:04:33.455Z,1772
2017-05-12T13:05:46.444Z,1752
2017-05-12T13:06:59.630Z,1700
2017-05-12T13:08:12.619Z,1716
2017-05-12T13:09:25.116Z,1704
2017-05-12T13:10:38.057Z,1688
2017-05-12T13:11:50.964Z,1656
2017-05-12T13:13:03.377Z,1652
2017-05-12T13:14:15.298Z,1612
2017-05-12T13:15:27.227Z,1616
2017-05-12T13:16:39.549Z,1648
2017-05-12T13:17:52.450Z,1660
2017-05-12T13:19:05.353Z,1636
2017-05-12T13:20:18.255Z,1620
2017-05-12T13:21:31.161Z,1616
2017-05-12T13:22:44.069Z,1584
2017-05-12T13:23:57.180Z,1608
2017-05-12T13:25:09.595Z,1604
2017-05-12T13:26:22.015Z,1604
2017-05-12T13:27:34.918Z,1592
2017-05-12T13:28:47.822Z,1564
2017-05-12T13:30:00.229Z,1552
2017-05-12T13:31:12.656Z,1492
2017-05-12T13:32:24.582Z,1480
2017-05-12T13:33:37.486Z,1484
2017-05-12T13:34:50.388Z,1524
2017-05-12T13:36:03.288Z,1520
2017-05-12T13:37:16.191Z,1560
2017-05-12T13:38:28.603Z,1556
2017-05-12T13:39:41.026Z,1560
2017-05-12T13:40:53.152Z,1564
2017-05-12T13:42:06.062Z,1548
2017-05-12T13:43:17.987Z,1560
2017-05-12T13:44:44.454Z,1556
2017-05-12T13:45:57.371Z,1572
2017-05-12T13:47:09.784Z,1552
2017-05-12T13:48:22.694Z,1560
2017-05-12T13:49:35.602Z,1564
2017-05-12T13:50:48.040Z,1568
2017-05-12T13:52:00.987Z,1568
2017-05-12T13:53:14.096Z,1564
2017-05-12T13:54:27.042Z,1556
2017-05-12T13:55:39.472Z,1556
2017-05-12T13:56:51.887Z,1572
2017-05-12T13:58:04.808Z,1572
2017-05-12T13:59:17.719Z,1580
2017-05-12T14:00:30.139Z,1576
2017-05-12T14:01:42.751Z,1576
2017-05-12T14:02:55.159Z,1576
2017-05-12T14:04:07.571Z,1576
2017-05-12T14:05:19.986Z,1628
2017-05-12T14:06:32.938Z,1592
2017-05-12T14:07:46.060Z,1600
2017-05-12T14:08:58.967Z,1596
2017-05-12T14:10:10.888Z,1596
2017-05-12T14:11:23.795Z,1584
2017-05-12T14:12:36.211Z,1588
2017-05-12T14:13:49.116Z,1608
2017-05-12T14:15:02.022Z,1612
2017-05-12T14:16:14.927Z,1612
2017-05-12T14:17:27.345Z,1608
2017-05-12T14:18:40.252Z,1616
2017-05-12T14:19:52.676Z,1616
2017-05-12T14:21:05.580Z,1608
2017-05-12T14:22:18.001Z,1612
2017-05-12T14:23:30.412Z,1612
2017-05-12T14:24:42.827Z,1616
2017-05-12T14:25:55.741Z,1624
2017-05-12T14:27:08.149Z,1616
2017-05-12T14:28:20.076Z,1620
2017-05-12T14:29:32.980Z,1628
2017-05-12T14:30:45.884Z,1620
2017-05-12T14:31:58.796Z,1616
2017-05-12T14:33:11.696Z,1600
2017-05-12T14:34:24.600Z,1624
2017-05-12T14:35:37.509Z,1628
2017-05-12T14:36:49.924Z,1608
2017-05-12T14:38:02.369Z,1588
2017-05-12T14:39:15.284Z,1580
2017-05-12T14:40:27.700Z,1536
2017-05-12T14:41:40.123Z,1524
2017-05-12T14:42:52.052Z,1476
2017-05-12T14:44:04.961Z,1480
2017-05-12T14:45:17.370Z,1468
2017-05-12T14:46:29.785Z,1460
2017-05-12T14:47:42.688Z,1452
2017-05-12T14:48:55.590Z,1428
2017-05-12T14:50:07.525Z,1388
2017-05-12T14:51:20.422Z,1360
2017-05-12T14:52:33.333Z,1336
2017-05-12T14:53:46.232Z,1308
2017-05-12T14:54:59.150Z,1292
2017-05-12T14:56:11.762Z,1272
2017-05-12T14:57:24.182Z,1236
2017-05-12T14:58:37.085Z,1216
2017-05-12T14:59:49.994Z,1216
2017-05-12T15:01:02.406Z,1216
2017-05-12T15:02:15.303Z,1204
2017-05-12T15:03:27.715Z,1176
2017-05-12T15:04:40.669Z,1152
2017-05-12T15:05:53.078Z,1140
2017-05-12T15:07:06.284Z,1120
2017-05-12T15:08:19.190Z,1080
2017-05-12T15:09:32.100Z,1068
2017-05-12T15:10:45.013Z,1052
2017-05-12T15:11:57.432Z,1028
2017-05-12T15:13:09.847Z,1004
2017-05-12T15:14:22.748Z,1004
2017-05-12T15:15:35.657Z,1004
2017-05-12T15:16:47.585Z,984
2017-05-12T15:18:00.690Z,984
2017-05-12T15:19:13.592Z,976
2017-05-12T15:20:26.008Z,916
2017-05-12T15:21:38.906Z,920
2017-05-12T15:22:51.818Z,916
2017-05-12T15:24:04.432Z,892
2017-05-12T15:25:17.330Z,884
2017-05-12T15:26:30.232Z,864
2017-05-12T15:27:43.148Z,848
2017-05-12T15:28:55.758Z,824
2017-05-12T15:30:08.655Z,804
2017-05-12T15:31:21.071Z,792
2017-05-12T15:32:33.489Z,780
2017-05-12T15:33:45.912Z,764
2017-05-12T15:34:59.013Z,756
2017-05-12T15:36:11.918Z,728
2017-05-12T15:37:24.331Z,728
2017-05-12T15:38:36.747Z,712
2017-05-12T15:39:49.653Z,672
2017-05-12T15:41:02.563Z,672
2017-05-12T15:42:14.972Z,660
2017-05-12T15:43:26.898Z,648
2017-05-12T15:44:39.801Z,632
2017-05-12T15:45:52.411Z,620
2017-05-12T15:47:04.824Z,596
2017-05-12T15:48:17.238Z,580
2017-05-12T15:49:29.158Z,572
2017-05-12T15:50:42.368Z,564
2017-05-12T15:51:55.313Z,556
2017-05-12T15:53:08.212Z,544
2017-05-12T15:54:19.649Z,528
2017-05-12T15:55:32.062Z,516
2017-05-12T15:56:44.977Z,504
2017-05-12T15:57:57.886Z,496
2017-05-12T15:59:10.783Z,492
2017-05-12T16:00:23.684Z,480
2017-05-12T16:01:36.589Z,488
2017-05-12T16:02:49.004Z,492
2017-05-12T16:04:01.901Z,488
2017-05-12T16:05:14.814Z,496
2017-05-12T16:06:27.717Z,496
2017-05-12T16:07:40.144Z,496
2017-05-12T16:08:53.053Z,480
2017-05-12T16:10:05.496Z,496
2017-05-12T16:11:18.403Z,504
2017-05-12T16:12:31.508Z,492
2017-05-12T16:13:44.409Z,480
2017-05-12T16:14:57.308Z,472
2017-05-12T16:16:10.204Z,468
2017-05-12T16:17:22.616Z,472
2017-05-12T16:18:35.519Z,472
2017-05-12T16:19:47.442Z,472
2017-05-12T16:20:59.854Z,476
2017-05-12T16:22:12.755Z,476
2017-05-12T16:23:25.167Z,484
2017-05-12T16:24:38.072Z,488
2017-05-12T16:25:50.481Z,476
2017-05-12T16:27:02.410Z,464
2017-05-12T16:28:14.820Z,444
2017-05-12T16:29:27.724Z,440
2017-05-12T16:30:40.135Z,456
2017-05-12T16:31:52.542Z,456
2017-05-12T16:33:04.463Z,480
2017-05-12T16:34:17.366Z,500
2017-05-12T16:35:29.784Z,488
2017-05-12T16:36:42.682Z,464
2017-05-12T16:37:55.587Z,464
2017-05-12T16:39:08.544Z,476
2017-05-12T16:40:20.959Z,496
2017-05-12T16:41:33.376Z,500
2017-05-12T16:42:46.279Z,496
2017-05-12T16:43:58.700Z,476
2017-05-12T16:45:11.651Z,444
2017-05-12T16:46:24.563Z,424
2017-05-12T16:47:36.979Z,404
2017-05-12T16:48:49.883Z,404
2017-05-12T16:50:02.786Z,436
2017-05-12T16:51:15.200Z,464
2017-05-12T16:52:27.612Z,452
2017-05-12T16:53:40.043Z,416
2017-05-12T16:54:51.967Z,384
2017-05-12T16:56:05.073Z,364
2017-05-12T16:57:17.486Z,352
2017-05-12T16:58:30.392Z,344
2017-05-12T16:59:43.294Z,344